Time;durP1;ratioP1;P1;durP2;ratioP2;P2;SDS_P1;SDS_P2;PMS_P1;PMS_P2;Temp;Humidity;BMP_temperature;BMP_pressure;BME280_temperature;BME280_humidity;BME280_pressure;Samples;Min_cycle;Max_cycle;Signal;HPM_P1;HPM_P2
2022/10/24 00:02:21;;;;;;;7.73;1.20;;;;;;;16.48;49.50;99663.31;5136835;27;20192;-89
2022/10/24 00:04:47;;;;;;;3.27;1.37;;;;;;;16.53;49.39;99657.75;5137301;27;20171;-89
2022/10/24 00:07:12;;;;;;;2.23;1.23;;;;;;;16.50;48.75;99658.78;5136657;27;20222;-90
2022/10/24 00:09:38;;;;;;;2.17;1.07;;;;;;;16.58;48.87;99664.44;5118583;27;20203;-89
2022/10/24 00:12:04;;;;;;;2.10;0.90;;;;;;;16.53;49.22;99657.75;5136631;27;20540;-89
2022/10/24 00:14:30;;;;;;;2.97;1.40;;;;;;;16.47;49.33;99661.63;5118710;27;20181;-90
2022/10/24 00:16:55;;;;;;;2.73;1.20;;;;;;;16.34;49.36;99670.50;5118468;27;20167;-89
2022/10/24 00:19:21;;;;;;;2.10;0.80;;;;;;;16.13;49.94;99664.00;5136810;27;20210;-89
2022/10/24 00:21:46;;;;;;;2.10;1.10;;;;;;;16.08;50.70;99664.31;5136498;27;20597;-89
2022/10/24 00:24:12;;;;;;;2.50;1.00;;;;;;;16.05;50.93;99667.16;5136713;27;20185;-89
2022/10/24 00:26:37;;;;;;;2.87;1.00;;;;;;;16.07;50.77;99667.03;5136377;27;20174;-89
2022/10/24 00:29:03;;;;;;;1.63;0.73;;;;;;;15.87;51.46;99661.28;5118171;27;20210;-89
2022/10/24 00:31:30;;;;;;;3.87;1.07;;;;;;;15.94;51.51;99662.59;5136321;27;20168;-89
2022/10/24 00:33:55;;;;;;;4.57;1.43;;;;;;;16.09;51.16;99658.06;5136232;27;20168;-89
2022/10/24 00:36:23;;;;;;;4.00;1.10;;;;;;;15.98;51.14;99657.94;5136191;27;20179;-89
2022/10/24 00:38:49;;;;;;;1.50;0.90;;;;;;;16.02;51.28;99662.06;5136144;27;20166;-89
2022/10/24 00:41:19;;;;;;;2.97;1.30;;;;;;;16.02;51.27;99658.56;5136108;27;20169;-89
2022/10/24 00:43:45;;;;;;;2.30;1.30;;;;;;;16.07;51.28;99662.59;5117884;27;20257;-89
2022/10/24 00:46:11;;;;;;;3.33;1.40;;;;;;;16.03;51.52;99657.63;5135992;27;20630;-89
2022/10/24 00:48:49;;;;;;;3.53;1.33;;;;;;;15.93;51.78;99649.47;5117781;27;20604;-89
2022/10/24 00:51:20;;;;;;;1.40;0.80;;;;;;;15.92;52.12;99645.13;5135742;27;20193;-89
2022/10/24 00:53:52;;;;;;;2.23;1.23;;;;;;;16.05;51.55;99643.34;5136146;27;20177;-89
2022/10/24 00:56:20;;;;;;;2.63;1.23;;;;;;;16.10;51.64;99645.69;5116879;28;20185;-89
2022/10/24 00:58:47;;;;;;;3.07;1.43;;;;;;;15.95;51.72;99640.50;5135545;27;20215;-89
2022/10/24 01:01:13;;;;;;;9.07;1.33;;;;;;;15.91;52.05;99646.06;5135702;27;20721;-89
2022/10/24 01:03:38;;;;;;;4.33;1.20;;;;;;;15.96;51.92;99650.09;5117509;27;20182;-89
2022/10/24 01:06:12;;;;;;;2.77;1.07;;;;;;;16.03;51.95;99645.25;5135576;27;20178;-89
2022/10/24 01:08:48;;;;;;;3.57;1.13;;;;;;;15.93;52.03;99644.19;5135508;27;20194;-89
2022/10/24 01:11:25;;;;;;;1.80;0.93;;;;;;;15.91;52.34;99643.41;5135777;27;20229;-89
2022/10/24 01:14:18;;;;;;;4.50;1.80;;;;;;;16.04;51.73;99646.13;5117260;27;20506;-89
2022/10/24 01:16:49;;;;;;;1.40;0.90;;;;;;;16.11;51.64;99655.31;5135687;27;20195;-89
2022/10/24 01:19:36;;;;;;;2.43;1.57;;;;;;;16.09;51.70;99655.41;5117212;27;20192;-89
2022/10/24 01:22:07;;;;;;;2.40;1.20;;;;;;;16.12;51.54;99647.28;5135534;27;20173;-89
2022/10/24 01:24:38;;;;;;;1.50;0.97;;;;;;;16.10;51.36;99649.19;5135529;27;20246;-89
2022/10/24 01:27:32;;;;;;;2.60;1.20;;;;;;;15.95;51.68;99642.28;5116958;27;20180;-89
2022/10/24 01:30:03;;;;;;;2.27;1.00;;;;;;;15.86;51.77;99637.59;5117037;27;20598;-89
2022/10/24 01:32:34;;;;;;;1.57;1.00;;;;;;;15.82;52.30;99636.09;5116957;27;20562;-89
2022/10/24 01:35:39;;;;;;;1.80;1.00;;;;;;;15.82;52.50;99625.53;5135063;27;20153;-89
2022/10/24 01:38:08;;;;;;;2.47;1.33;;;;;;;15.87;52.49;99629.56;5135539;27;20167;-89
2022/10/24 01:41:02;;;;;;;4.70;1.50;;;;;;;16.00;51.94;99640.19;5135173;27;20168;-89
2022/10/24 01:43:35;;;;;;;2.17;1.00;;;;;;;16.02;51.79;99625.03;5131951;27;20198;-89
2022/10/24 01:46:08;;;;;;;2.93;1.10;;;;;;;15.98;51.75;99634.97;5135377;27;20534;-89
2022/10/24 01:48:39;;;;;;;3.10;1.10;;;;;;;16.02;51.82;99643.56;5134685;27;20244;-89
2022/10/24 01:51:07;;;;;;;1.80;0.80;;;;;;;15.91;51.83;99635.47;5116434;27;20162;-89
2022/10/24 01:53:34;;;;;;;1.73;1.07;;;;;;;15.82;52.33;99644.03;5134977;27;20160;-89
2022/10/24 01:56:00;;;;;;;3.13;1.23;;;;;;;15.69;52.70;99643.16;5116528;27;20167;-89
2022/10/24 01:58:25;;;;;;;1.47;0.80;;;;;;;15.72;52.71;99640.31;5134555;27;20183;-89
2022/10/24 02:00:57;;;;;;;2.30;1.10;;;;;;;15.66;53.20;99636.28;5116436;27;20635;-89
2022/10/24 02:03:35;;;;;;;3.40;1.37;;;;;;;15.81;52.50;99635.25;5116446;27;20635;-89
2022/10/24 02:06:12;;;;;;;4.03;1.37;;;;;;;15.76;52.67;99639.16;5134494;27;20155;-89
2022/10/24 02:08:42;;;;;;;2.83;1.47;;;;;;;15.79;52.36;99653.03;5134379;27;20267;-89
2022/10/24 02:11:08;;;;;;;2.20;0.97;;;;;;;15.83;52.22;99646.56;5116261;27;20220;-89
2022/10/24 02:13:49;;;;;;;2.50;1.20;;;;;;;15.77;52.10;99643.50;5134406;27;20179;-89
2022/10/24 02:16:19;;;;;;;5.33;1.40;;;;;;;15.65;52.71;99650.41;5134619;27;20212;-89
2022/10/24 02:18:47;;;;;;;1.57;1.10;;;;;;;15.65;52.85;99650.41;5134521;27;20244;-89
2022/10/24 02:21:12;;;;;;;1.97;0.87;;;;;;;15.62;52.46;99649.75;5116151;27;20180;-89
2022/10/24 02:24:11;;;;;;;2.67;1.10;;;;;;;15.46;53.44;99654.38;5134207;27;20168;-89
2022/10/24 02:26:48;;;;;;;2.43;0.93;;;;;;;15.37;54.01;99656.63;5134524;27;20160;-90
2022/10/24 02:29:21;;;;;;;5.57;1.23;;;;;;;15.53;53.39;99650.38;5116058;28;20186;-89
2022/10/24 02:31:52;;;;;;;2.17;1.00;;;;;;;15.39;54.07;99654.72;5116006;27;20174;-89
2022/10/24 02:34:20;;;;;;;2.80;1.07;;;;;;;15.49;54.19;99648.88;5134158;27;20605;-90
2022/10/24 02:36:49;;;;;;;2.60;1.43;;;;;;;15.44;54.49;99654.41;5134320;27;20171;-89
2022/10/24 02:39:15;;;;;;;2.47;1.03;;;;;;;15.35;54.64;99655.03;5134036;27;20177;-89
2022/10/24 02:41:43;;;;;;;3.37;1.10;;;;;;;15.40;54.27;99647.66;5134287;28;20585;-89
2022/10/24 02:44:12;;;;;;;2.57;1.23;;;;;;;15.28;54.44;99649.25;5133977;28;20267;-89
2022/10/24 02:46:39;;;;;;;3.63;1.40;;;;;;;15.27;54.42;99650.22;5115826;28;20179;-89
2022/10/24 02:49:05;;;;;;;2.60;1.33;;;;;;;15.35;54.02;99653.22;5134116;28;20203;-89
2022/10/24 02:51:35;;;;;;;4.93;1.10;;;;;;;15.46;53.41;99663.13;5115684;28;20227;-89
2022/10/24 02:54:02;;;;;;;3.30;1.53;;;;;;;15.47;53.15;99664.81;5115803;28;20167;-89
2022/10/24 02:56:28;;;;;;;4.00;1.17;;;;;;;15.33;53.49;99665.66;5115755;28;20195;-89
2022/10/24 02:58:53;;;;;;;5.43;1.40;;;;;;;15.29;54.19;99666.81;5115734;28;20576;-89
2022/10/24 03:01:19;;;;;;;2.23;1.30;;;;;;;15.25;54.01;99667.94;5115712;28;20179;-89
2022/10/24 03:03:45;;;;;;;2.03;1.00;;;;;;;15.17;54.33;99670.22;5133767;28;20183;-89
2022/10/24 03:06:11;;;;;;;1.73;1.00;;;;;;;15.06;55.01;99666.56;5134038;28;20175;-89
2022/10/24 03:08:36;;;;;;;2.03;1.20;;;;;;;15.20;54.58;99664.75;5133692;28;20231;-89
2022/10/24 03:11:02;;;;;;;1.87;1.07;;;;;;;15.14;54.71;99661.66;5133958;28;20179;-89
2022/10/24 03:13:28;;;;;;;2.07;1.30;;;;;;;15.07;55.04;99658.53;5133987;28;20171;-89
2022/10/24 03:15:53;;;;;;;3.40;1.33;;;;;;;14.96;55.15;99650.47;5115575;28;20183;-89
2022/10/24 03:18:19;;;;;;;2.87;1.33;;;;;;;14.91;55.36;99649.03;5115604;28;20274;-89
2022/10/24 03:20:45;;;;;;;2.30;1.07;;;;;;;14.96;55.53;99646.97;5135923;27;20259;-89
2022/10/24 03:23:10;;;;;;;4.20;1.63;;;;;;;14.96;55.33;99655.75;5119493;27;20179;-89
2022/10/24 03:25:36;;;;;;;5.83;1.17;;;;;;;14.90;55.21;99656.09;5119404;27;20270;-89
2022/10/24 03:28:01;;;;;;;3.40;1.43;;;;;;;14.88;55.01;99658.00;5137464;27;20667;-89
2022/10/24 03:30:27;;;;;;;4.03;1.50;;;;;;;14.85;55.03;99652.91;5137707;27;20185;-88
2022/10/24 03:32:52;;;;;;;3.23;1.20;;;;;;;14.85;55.20;99652.91;5119348;27;20193;-89
2022/10/24 03:35:18;;;;;;;2.23;1.00;;;;;;;14.90;55.07;99650.81;5137348;27;20163;-89
2022/10/24 03:37:43;;;;;;;2.30;1.27;;;;;;;14.83;55.09;99652.16;5137853;27;20543;-88
2022/10/24 03:40:10;;;;;;;2.73;1.60;;;;;;;14.83;55.40;99656.59;5119140;27;20682;-89
2022/10/24 03:42:36;;;;;;;4.37;1.50;;;;;;;14.82;55.12;99653.09;5119055;27;20272;-89
2022/10/24 03:45:01;;;;;;;4.37;1.67;;;;;;;14.77;54.84;99656.03;5119044;27;20792;-89
2022/10/24 03:47:27;;;;;;;2.00;1.00;;;;;;;14.77;54.82;99649.88;5137132;27;20168;-89
2022/10/24 03:49:52;;;;;;;2.17;1.27;;;;;;;14.68;54.97;99646.00;5118901;27;20226;-89
2022/10/24 03:52:18;;;;;;;1.77;1.07;;;;;;;14.66;55.12;99649.69;5136917;27;20187;-89
2022/10/24 03:54:43;;;;;;;2.77;1.50;;;;;;;14.68;54.61;99647.81;5118795;27;20178;-89
2022/10/24 03:57:09;;;;;;;7.80;1.90;;;;;;;14.58;55.13;99654.59;5136925;27;20245;-89
2022/10/24 03:59:35;;;;;;;4.00;1.80;;;;;;;14.58;55.08;99649.31;5136931;27;20251;-89
2022/10/24 04:02:02;;;;;;;7.07;2.23;;;;;;;14.57;54.63;99659.00;5118853;27;20227;-89
2022/10/24 04:04:27;;;;;;;4.60;1.77;;;;;;;14.60;54.74;99663.25;5136854;27;20175;-89
2022/10/24 04:06:53;;;;;;;3.77;1.63;;;;;;;14.59;54.40;99661.56;5136799;27;20182;-89
2022/10/24 04:09:19;;;;;;;4.47;2.00;;;;;;;14.65;54.01;99661.16;5118630;27;20244;-89
2022/10/24 04:11:45;;;;;;;3.30;1.90;;;;;;;14.70;54.48;99653.84;5136760;27;20262;-89
2022/10/24 04:14:11;;;;;;;3.77;1.93;;;;;;;14.57;54.44;99666.09;5136644;27;20266;-90
2022/10/24 04:16:36;;;;;;;6.40;1.80;;;;;;;14.45;55.04;99675.59;5118471;27;20174;-89
2022/10/24 04:19:02;;;;;;;3.13;1.57;;;;;;;14.40;55.57;99669.75;5136485;27;20226;-89
2022/10/24 04:21:27;;;;;;;6.23;1.53;;;;;;;14.43;55.55;99668.69;5118532;27;20178;-89
2022/10/24 04:23:52;;;;;;;4.27;1.73;;;;;;;14.37;55.18;99667.28;5118383;27;20273;-89
2022/10/24 04:26:18;;;;;;;5.30;1.40;;;;;;;14.24;56.02;99661.00;5136361;27;20627;-89
2022/10/24 04:28:45;;;;;;;3.03;1.70;;;;;;;14.23;56.38;99659.28;5118293;27;20167;-89
2022/10/24 04:31:11;;;;;;;3.77;1.83;;;;;;;14.22;56.02;99662.03;5136108;27;20205;-89
2022/10/24 04:33:36;;;;;;;4.43;1.97;;;;;;;14.21;56.16;99655.03;5118170;27;20207;-89
2022/10/24 04:36:02;;;;;;;4.17;1.80;;;;;;;14.24;56.25;99654.88;5118107;27;20171;-89
2022/10/24 04:38:28;;;;;;;3.60;1.60;;;;;;;14.27;55.86;99642.38;5117991;27;20609;-89
2022/10/24 04:40:53;;;;;;;2.47;1.30;;;;;;;14.34;55.54;99650.78;5136452;27;20265;-89
2022/10/24 04:43:20;;;;;;;3.67;2.03;;;;;;;14.28;55.55;99648.50;5117978;27;20277;-89
2022/10/24 04:45:46;;;;;;;2.57;1.60;;;;;;;14.33;55.23;99646.47;5136270;27;20251;-89
2022/10/24 04:48:12;;;;;;;2.80;1.30;;;;;;;14.21;55.32;99644.50;5136272;27;20536;-89
2022/10/24 04:50:39;;;;;;;6.17;1.73;;;;;;;14.13;55.56;99643.16;5118695;27;20170;-89
2022/10/24 04:53:05;;;;;;;3.83;1.93;;;;;;;14.17;55.42;99643.84;5135774;27;20183;-89
2022/10/24 04:55:31;;;;;;;3.83;1.80;;;;;;;14.10;55.41;99659.16;5117778;27;20218;-89
2022/10/24 04:57:56;;;;;;;2.80;1.60;;;;;;;14.07;55.91;99656.72;5135990;27;20191;-89
2022/10/24 05:00:22;;;;;;;2.90;1.47;;;;;;;14.08;55.45;99663.69;5136016;27;20171;-89
2022/10/24 05:02:47;;;;;;;2.97;1.77;;;;;;;14.06;55.55;99662.09;5117608;27;20541;-89
2022/10/24 05:05:13;;;;;;;2.43;1.20;;;;;;;13.98;55.74;99661.66;5117780;27;20265;-89
2022/10/24 05:07:38;;;;;;;3.30;2.00;;;;;;;13.91;56.03;99663.84;5117484;27;20174;-89
2022/10/24 05:10:05;;;;;;;9.43;2.47;;;;;;;13.97;55.36;99668.72;5135797;27;20259;-89
2022/10/24 05:12:30;;;;;;;6.00;1.87;;;;;;;14.06;55.49;99670.84;5117368;27;20181;-88
2022/10/24 05:14:56;;;;;;;7.83;2.60;;;;;;;14.11;55.34;99678.47;5117332;27;20174;-89
2022/10/24 05:17:21;;;;;;;6.10;2.70;;;;;;;14.18;55.36;99676.34;5117244;27;20624;-89
2022/10/24 05:19:48;;;;;;;5.30;3.00;;;;;;;14.32;55.82;99673.75;5135329;27;20167;-89
2022/10/24 05:22:14;;;;;;;9.17;3.67;;;;;;;14.45;55.78;99680.00;5117383;27;20175;-89
2022/10/24 05:24:39;;;;;;;9.73;4.53;;;;;;;14.53;55.92;99677.75;5135519;27;20173;-89
2022/10/24 05:27:05;;;;;;;9.20;3.63;;;;;;;14.64;55.77;99683.25;5135156;27;20624;-89
2022/10/24 05:29:30;;;;;;;5.53;2.43;;;;;;;14.82;55.60;99676.00;5117036;27;20227;-89
2022/10/24 05:31:56;;;;;;;5.20;2.70;;;;;;;15.00;54.67;99675.72;5135080;27;20178;-89
2022/10/24 05:34:21;;;;;;;6.47;2.50;;;;;;;15.18;54.08;99684.28;5117004;27;20262;-89
2022/10/24 05:36:47;;;;;;;7.33;2.47;;;;;;;15.25;53.23;99689.06;5135240;27;20195;-89
2022/10/24 05:39:12;;;;;;;6.20;3.30;;;;;;;15.45;52.75;99698.38;5116746;27;20278;-89
2022/10/24 05:41:37;;;;;;;4.53;2.70;;;;;;;15.64;52.22;99692.81;5116821;27;20171;-89
2022/10/24 05:44:03;;;;;;;6.17;2.57;;;;;;;15.73;52.06;99692.19;5134262;27;20167;-89
2022/10/24 05:46:29;;;;;;;5.00;2.17;;;;;;;15.86;52.18;99690.47;5135395;27;20176;-89
2022/10/24 05:48:54;;;;;;;4.40;2.07;;;;;;;16.00;51.80;99693.06;5134748;27;20629;-89
2022/10/24 05:51:20;;;;;;;5.83;2.20;;;;;;;16.19;51.69;99687.41;5116554;27;20278;-89
2022/10/24 05:53:45;;;;;;;3.03;1.33;;;;;;;16.52;50.65;99686.00;5116674;27;20308;-89
2022/10/24 05:56:11;;;;;;;4.13;1.50;;;;;;;17.13;49.04;99674.66;5117132;27;20632;-90
2022/10/24 05:58:36;;;;;;;2.93;1.60;;;;;;;17.78;47.24;99675.25;5116463;27;20197;-90
2022/10/24 06:01:02;;;;;;;2.60;1.47;;;;;;;18.27;46.01;99671.56;5116533;27;20182;-90
2022/10/24 06:03:27;;;;;;;3.20;1.70;;;;;;;18.66;45.46;99668.56;5134540;27;20184;-90
2022/10/24 06:05:53;;;;;;;3.17;1.50;;;;;;;19.37;44.04;99675.31;5134531;27;20178;-90
2022/10/24 06:08:18;;;;;;;3.13;1.37;;;;;;;20.09;41.49;99671.19;5116345;27;20253;-90
2022/10/24 06:10:48;;;;;;;2.33;1.30;;;;;;;21.02;40.47;99669.41;5134648;27;20173;-90
2022/10/24 06:13:15;;;;;;;3.40;1.80;;;;;;;21.63;39.02;99673.75;5134361;27;20171;-90
2022/10/24 06:15:41;;;;;;;5.07;1.40;;;;;;;21.79;38.16;99676.72;5134316;27;20167;-90
2022/10/24 06:18:07;;;;;;;5.47;1.30;;;;;;;21.70;38.72;99682.03;5134503;27;20192;-90
2022/10/24 06:20:32;;;;;;;2.80;1.30;;;;;;;22.00;38.31;99677.47;5116491;27;20175;-90
2022/10/24 06:22:58;;;;;;;3.27;1.00;;;;;;;21.89;38.11;99687.44;5116179;27;20281;-90
2022/10/24 06:25:23;;;;;;;2.13;1.33;;;;;;;22.04;37.97;99686.03;5134190;27;20615;-91
2022/10/24 06:27:48;;;;;;;4.30;1.20;;;;;;;22.27;38.08;99684.81;5134425;27;20224;-90
2022/10/24 06:30:16;;;;;;;2.50;1.00;;;;;;;22.54;37.65;99684.91;5116005;28;20206;-90
2022/10/24 06:32:41;;;;;;;7.17;1.50;;;;;;;22.40;37.32;99692.53;5116183;27;20270;-90
2022/10/24 06:35:08;;;;;;;3.33;1.33;;;;;;;22.19;38.52;99692.66;5116007;27;20590;-90
2022/10/24 06:37:33;;;;;;;8.43;1.87;;;;;;;22.07;38.62;99691.09;5134225;27;20183;-91
2022/10/24 06:39:58;;;;;;;6.20;1.70;;;;;;;22.11;38.52;99697.88;5116810;27;20167;-91
2022/10/24 06:42:24;;;;;;;6.13;1.53;;;;;;;22.28;38.15;99704.31;5134290;28;20174;-91
2022/10/24 06:44:50;;;;;;;4.40;1.27;;;;;;;22.42;38.80;99701.22;5115854;28;20167;-90
2022/10/24 06:47:16;;;;;;;2.13;1.00;;;;;;;22.88;37.93;99695.13;5133991;28;20193;-91
2022/10/24 06:49:42;;;;;;;2.90;1.20;;;;;;;23.33;36.52;99689.91;5116101;28;20178;-91
2022/10/24 06:52:07;;;;;;;2.90;1.30;;;;;;;23.72;36.16;99692.25;5115812;28;20216;-91
2022/10/24 06:54:34;;;;;;;3.20;1.30;;;;;;;23.96;35.96;99690.81;5133903;27;20194;-91
2022/10/24 06:57:00;;;;;;;4.97;1.20;;;;;;;24.19;35.59;99694.75;5119996;27;20175;-92
2022/10/24 06:59:26;;;;;;;3.23;1.43;;;;;;;24.41;34.76;99696.97;5119994;27;20178;-91
2022/10/24 07:01:51;;;;;;;4.93;1.50;;;;;;;24.29;35.16;99692.88;5119968;27;20208;-91
2022/10/24 07:04:17;;;;;;;3.00;1.10;;;;;;;24.19;35.52;99692.94;5138328;27;20182;-91
2022/10/24 07:06:42;;;;;;;2.00;1.13;;;;;;;24.01;35.65;99688.53;5137914;27;20171;-92
2022/10/24 07:09:10;;;;;;;2.20;1.10;;;;;;;23.97;35.63;99682.66;5119814;27;20203;-91
2022/10/24 07:11:36;;;;;;;3.87;1.23;;;;;;;24.10;35.83;99682.31;5137868;27;20159;-91
2022/10/24 07:14:01;;;;;;;2.23;1.13;;;;;;;24.18;35.21;99680.56;5137902;27;20235;-91
2022/10/24 07:16:27;;;;;;;5.20;1.10;;;;;;;24.10;35.23;99677.78;5119704;27;20209;-91
2022/10/24 07:18:52;;;;;;;3.27;1.10;;;;;;;24.10;35.46;99676.94;5137712;27;20274;-91
2022/10/24 07:21:21;;;;;;;3.40;1.53;;;;;;;24.11;35.14;99673.28;5119927;27;20262;-92
2022/10/24 07:23:47;;;;;;;8.60;1.50;;;;;;;24.10;35.58;99676.94;5119553;27;20182;-92
2022/10/24 07:26:14;;;;;;;2.27;1.03;;;;;;;24.16;35.47;99673.66;5119511;27;20171;-91
2022/10/24 07:28:41;;;;;;;4.73;1.37;;;;;;;24.12;35.29;99675.81;5119441;27;20183;-92
2022/10/24 07:31:07;;;;;;;1.90;1.13;;;;;;;24.10;34.92;99671.59;5137766;27;20620;-92
2022/10/24 07:33:33;;;;;;;3.40;1.43;;;;;;;23.98;35.33;99678.16;5119334;27;20183;-93
2022/10/24 07:35:59;;;;;;;4.33;1.50;;;;;;;23.70;35.70;99678.19;5119319;27;20170;-92
2022/10/24 07:38:25;;;;;;;3.17;1.43;;;;;;;23.64;35.49;99689.47;5119541;27;20199;-91
2022/10/24 07:40:50;;;;;;;3.20;1.33;;;;;;;23.73;35.74;99685.06;5119596;27;20262;-92
2022/10/24 07:43:16;;;;;;;2.80;1.40;;;;;;;23.77;36.29;99684.59;5119461;27;20261;-92
2022/10/24 07:45:43;;;;;;;6.23;1.57;;;;;;;23.67;36.17;99686.50;5119109;27;20175;-92
2022/10/24 07:48:09;;;;;;;4.63;1.50;;;;;;;23.70;36.41;99688.91;5137227;27;20167;-92
2022/10/24 07:50:42;;;;;;;4.20;1.60;;;;;;;23.59;36.15;99686.41;5119473;27;20522;-92
2022/10/24 07:53:07;;;;;;;5.13;1.90;;;;;;;23.48;36.84;99683.94;5119300;27;20591;-92
2022/10/24 07:55:33;;;;;;;3.23;1.13;;;;;;;23.60;36.38;99681.91;5119246;27;20181;-92
2022/10/24 07:57:58;;;;;;;3.03;1.60;;;;;;;23.78;35.92;99683.63;5136997;27;20222;-92
2022/10/24 08:00:24;;;;;;;3.70;1.30;;;;;;;23.88;35.99;99688.06;5118846;27;20224;-92
2022/10/24 08:02:50;;;;;;;4.40;2.07;;;;;;;23.78;36.16;99682.78;5118875;27;20175;-91
2022/10/24 08:05:15;;;;;;;4.10;1.53;;;;;;;23.84;36.31;99682.19;5118667;27;20167;-91
2022/10/24 08:07:41;;;;;;;4.07;1.83;;;;;;;23.72;35.95;99676.19;5136447;27;20163;-92
2022/10/24 08:10:09;;;;;;;5.27;1.40;;;;;;;23.73;35.93;99680.56;5118745;27;20255;-92
2022/10/24 08:12:35;;;;;;;1.70;1.00;;;;;;;23.95;36.16;99687.28;5118700;27;20170;-92
2022/10/24 08:15:00;;;;;;;5.23;1.63;;;;;;;24.15;35.33;99677.31;5119057;27;20243;-92
2022/10/24 08:17:26;;;;;;;2.97;1.37;;;;;;;24.25;35.43;99680.75;5136565;27;20183;-92
2022/10/24 08:19:51;;;;;;;3.17;1.37;;;;;;;24.30;35.18;99670.41;5137406;27;20224;-92
2022/10/24 08:22:17;;;;;;;2.90;1.47;;;;;;;24.26;35.10;99674.41;5137222;27;20566;-92
2022/10/24 08:24:43;;;;;;;4.27;1.73;;;;;;;24.43;34.89;99670.88;5137043;27;20178;-92
2022/10/24 08:27:08;;;;;;;3.60;1.60;;;;;;;24.52;34.64;99675.31;5118683;27;20186;-93
2022/10/24 08:29:34;;;;;;;5.97;1.57;;;;;;;24.76;34.80;99659.41;5118542;27;20305;-92
2022/10/24 08:31:59;;;;;;;6.87;2.00;;;;;;;24.74;34.76;99666.75;5136721;27;20181;-92
2022/10/24 08:34:25;;;;;;;4.77;2.13;;;;;;;24.96;34.08;99670.78;5118364;27;20202;-92
2022/10/24 08:36:50;;;;;;;5.07;2.13;;;;;;;25.10;33.84;99661.28;5118178;27;20482;-93
2022/10/24 08:39:17;;;;;;;5.60;2.13;;;;;;;25.32;34.08;99668.75;5118235;27;20191;-92
2022/10/24 08:41:50;;;;;;;4.73;1.70;;;;;;;25.60;32.83;99664.91;5118212;27;20185;-92
2022/10/24 08:44:19;;;;;;;4.60;1.87;;;;;;;25.64;32.53;99672.44;5118081;27;20171;-93
2022/10/24 08:46:52;;;;;;;3.10;1.63;;;;;;;25.73;32.74;99654.53;5118106;27;20609;-93
2022/10/24 08:49:42;;;;;;;3.70;1.50;;;;;;;25.82;32.24;99650.84;5118022;27;20605;-92
2022/10/24 08:52:43;;;;;;;3.77;1.50;;;;;;;25.86;32.82;99646.81;5136814;27;20495;-93
2022/10/24 08:55:18;;;;;;;5.90;1.60;;;;;;;26.09;32.06;99644.34;5136661;27;20630;-93
2022/10/24 08:57:49;;;;;;;2.10;1.10;;;;;;;26.36;31.50;99635.97;5135919;27;20718;-92
2022/10/24 09:00:24;;;;;;;2.23;1.10;;;;;;;26.60;31.53;99640.47;5117853;27;20169;-93
2022/10/24 09:03:20;;;;;;;6.83;2.37;;;;;;;26.59;31.17;99638.81;5136401;27;20618;-93
2022/10/24 09:05:53;;;;;;;2.97;1.03;;;;;;;26.61;30.37;99634.09;5117676;27;20167;-93
2022/10/24 09:08:32;;;;;;;4.17;1.47;;;;;;;26.49;30.78;99625.56;5136096;27;20156;-93
2022/10/24 09:11:00;;;;;;;3.17;1.27;;;;;;;26.47;30.44;99634.75;5117678;27;20188;-92
2022/10/24 09:13:28;;;;;;;3.17;1.35;;;;;;;26.74;31.20;99629.88;5118322;27;20308;-93
2022/10/24 09:15:54;;;;;;;1.67;1.05;;;;;;;26.97;30.66;99624.63;5135651;27;20643;-93
2022/10/24 09:18:31;;;;;;;2.00;1.10;;;;;;;27.11;30.51;99625.75;5134936;27;20194;-94
2022/10/24 09:20:57;;;;;;;5.03;1.35;;;;;;;27.27;29.77;99620.31;5118283;27;20258;-94
2022/10/24 09:23:25;;;;;;;2.75;1.38;;;;;;;27.35;30.16;99623.81;5117514;27;20267;-93
2022/10/24 09:25:53;;;;;;;2.53;1.10;;;;;;;27.48;30.04;99628.66;5135401;27;20171;-94
2022/10/24 09:28:19;;;;;;;1.92;0.80;;;;;;;27.34;29.97;99613.19;5135647;27;20179;-93
2022/10/24 09:30:46;;;;;;;3.28;1.30;;;;;;;27.35;29.96;99612.19;5117499;27;20191;-93
2022/10/24 09:33:14;;;;;;;2.67;1.00;;;;;;;27.59;29.89;99613.94;5117539;27;20208;-93
2022/10/24 09:35:42;;;;;;;3.30;1.55;;;;;;;27.54;29.13;99616.34;5117151;27;20274;-93
2022/10/24 09:38:25;;;;;;;4.70;1.40;;;;;;;27.79;29.80;99610.59;5117444;27;20197;-92
2022/10/24 09:40:53;;;;;;;3.28;1.23;;;;;;;27.77;29.06;99611.81;5117868;27;20179;-93
2022/10/24 09:43:30;;;;;;;1.30;0.88;;;;;;;28.04;28.81;99608.59;5135144;27;20584;-92
2022/10/24 09:46:15;;;;;;;5.20;1.10;;;;;;;28.10;29.31;99607.88;5117123;27;20167;-94
2022/10/24 09:48:48;;;;;;;3.10;1.25;;;;;;;28.02;28.91;99602.53;5117444;27;20171;-94
2022/10/24 09:51:43;;;;;;;4.88;1.40;;;;;;;28.27;29.36;99608.59;5117029;27;20494;-93
2022/10/24 09:54:17;;;;;;;6.63;1.30;;;;;;;28.77;28.55;99586.38;5117098;27;20175;-93
2022/10/24 09:57:02;;;;;;;3.90;1.15;;;;;;;28.77;28.31;99586.38;5116917;27;20652;-93
2022/10/24 09:59:44;;;;;;;2.17;1.10;;;;;;;28.72;28.31;99586.09;5134888;27;20487;-94
2022/10/24 10:02:09;;;;;;;2.17;1.13;;;;;;;28.68;28.46;99577.53;5135247;27;20187;-93
2022/10/24 10:04:36;;;;;;;3.42;1.20;;;;;;;28.83;28.16;99575.66;5116734;27;20175;-93
2022/10/24 10:07:15;;;;;;;4.22;1.52;;;;;;;29.05;28.20;99568.47;5134842;27;20257;-94
2022/10/24 10:09:55;;;;;;;6.18;1.10;;;;;;;29.32;27.66;99567.00;5116659;27;20155;-93
2022/10/24 10:12:33;;;;;;;1.95;0.70;;;;;;;29.46;27.82;99561.53;5116709;27;20167;-94
2022/10/24 10:15:01;;;;;;;2.17;1.20;;;;;;;29.27;27.95;99551.34;5117404;27;20503;-94
2022/10/24 10:17:32;;;;;;;1.80;0.90;;;;;;;29.38;27.15;99553.53;5134938;27;20206;-95
2022/10/24 10:19:58;;;;;;;2.88;1.38;;;;;;;29.50;27.67;99553.88;5117333;27;20224;-94
2022/10/24 10:22:30;;;;;;;5.43;1.35;;;;;;;29.75;27.83;99542.50;5134833;27;20178;-94
2022/10/24 10:24:56;;;;;;;7.47;1.55;;;;;;;30.04;27.00;99540.72;5116511;27;20166;-93
2022/10/24 10:27:33;;;;;;;5.60;1.88;;;;;;;30.15;26.77;99534.78;5116704;27;20235;-93
2022/10/24 10:30:18;;;;;;;3.15;1.52;;;;;;;30.27;26.74;99536.75;5116539;28;20210;-94
2022/10/24 10:33:02;;;;;;;2.83;1.45;;;;;;;30.36;26.70;99529.34;5116437;27;20171;-95
2022/10/24 10:36:01;;;;;;;4.50;1.85;;;;;;;30.41;26.07;99526.88;5117206;27;20546;-94
2022/10/24 10:38:39;;;;;;;4.30;2.08;;;;;;;30.48;26.55;99524.25;5116337;28;20179;-94
2022/10/24 10:41:23;;;;;;;4.70;1.90;;;;;;;30.49;25.67;99521.31;5116966;28;20257;-94
2022/10/24 10:44:17;;;;;;;3.25;1.73;;;;;;;30.31;26.29;99516.41;5135026;28;20175;-94
2022/10/24 10:46:43;;;;;;;7.40;1.40;;;;;;;30.33;27.27;99502.66;5071752;28;20191;-94
2022/10/24 10:49:21;;;;;;;5.93;1.70;;;;;;;30.53;26.22;99508.25;5116091;28;20205;-94
2022/10/24 10:51:50;;;;;;;4.68;1.98;;;;;;;30.59;26.92;99508.28;5116595;28;20310;-93
2022/10/24 10:54:53;;;;;;;4.97;2.13;;;;;;;30.53;26.55;99509.06;5116403;28;20625;-93
2022/10/24 10:57:23;;;;;;;8.00;2.33;;;;;;;30.78;26.78;99507.53;5116349;28;20230;-93
2022/10/24 11:00:26;;;;;;;3.13;1.77;;;;;;;31.08;26.97;99501.88;5115887;28;20628;-93
2022/10/24 11:02:55;;;;;;;5.45;1.65;;;;;;;31.30;26.87;99495.25;5120644;28;20285;-94
2022/10/24 11:05:40;;;;;;;2.97;1.30;;;;;;;31.27;25.95;99491.09;5134158;28;20642;-93
2022/10/24 11:08:18;;;;;;;4.32;1.70;;;;;;;31.27;26.55;99479.41;5115954;28;20285;-94
2022/10/24 11:10:50;;;;;;;2.78;1.20;;;;;;;31.69;26.25;99476.38;5115964;28;20178;-94
2022/10/24 11:13:26;;;;;;;3.00;1.48;;;;;;;31.55;26.34;99486.38;5116068;28;20223;-94
2022/10/24 11:15:57;;;;;;;3.10;1.60;;;;;;;31.46;26.08;99484.06;5134237;28;20163;-93
2022/10/24 11:18:30;;;;;;;6.22;2.20;;;;;;;31.54;25.80;99473.03;5134305;28;20251;-94
2022/10/24 11:21:08;;;;;;;3.58;1.30;;;;;;;31.79;25.61;99470.56;5116169;28;20262;-94
2022/10/24 11:23:43;;;;;;;6.50;2.10;;;;;;;31.83;25.94;99464.50;5134295;28;20167;-94
2022/10/24 11:26:14;;;;;;;6.45;2.72;;;;;;;31.61;25.99;99466.59;5134152;28;20163;-93
2022/10/24 11:28:48;;;;;;;4.35;2.20;;;;;;;31.80;25.85;99453.25;5134160;28;20194;-94
2022/10/24 11:31:45;;;;;;;5.60;2.30;;;;;;;31.82;25.78;99453.84;5116077;28;20742;-95
2022/10/24 11:34:10;;;;;;;5.25;1.75;;;;;;;31.76;26.38;99450.09;5116209;28;20212;-93
2022/10/24 11:36:44;;;;;;;4.93;2.40;;;;;;;31.92;25.67;99441.53;5115815;28;20275;-95
2022/10/24 11:39:24;;;;;;;3.92;1.98;;;;;;;31.84;25.88;99438.25;5115840;28;20505;-93
2022/10/24 11:42:17;;;;;;;4.70;2.15;;;;;;;31.46;26.39;99438.00;5136474;27;20246;-95
2022/10/24 11:44:59;;;;;;;4.68;1.83;;;;;;;31.49;26.37;99432.19;5138418;27;20264;-94
2022/10/24 11:47:24;;;;;;;4.28;2.20;;;;;;;31.50;26.31;99429.25;5137896;27;20588;-94